Terminal Aerodrome Forecast
Issued by NWS Dodge City, KS

Home | Current Version | Previous Version | Graphics & Text | Print | Product List | Glossary Off
Versions: 1 2 3 4 5 6 7 8 9 10 11 12 13 14 15 16 17 18 19 20 21 22 23 24 25 26 27 28 29 30 31 32 33 34 35 36 37 38 39 40

000
FTUS43 KDDC 262244 AAC
TAFDDC
TAF AMD
KDDC 262244Z 2623/2718 04014KT P6SM OVC012
     FM262330 03016KT P6SM VCTS OVC015CB
     FM270100 01012KT P6SM OVC010
     FM270300 36010KT 5SM BR OVC008
     FM270800 32008KT 1SM BR OVC003
     FM271500 33007KT P6SM SCT250=

USA.gov is the U.S. government's official web portal to all federal, state and local government web resources and services.